Time;durP1;ratioP1;P1;durP2;ratioP2;P2;SDS_P1;SDS_P2;PMS_P1;PMS_P2;Temp;Humidity;BMP_temperature;BMP_pressure;BME280_temperature;BME280_humidity;BME280_pressure;Samples;Min_cycle;Max_cycle;Signal;HPM_P1;HPM_P2
2020/12/15 00:01:25;;;;;;;5.00;4.07;;;9.40;99.90;;;;;;4994580;28;20632;-69
2020/12/15 00:04:09;;;;;;;4.07;3.77;;;9.40;99.90;;;;;;4991070;28;20708;-69
2020/12/15 00:06:54;;;;;;;4.10;3.60;;;9.30;99.90;;;;;;4996947;28;20711;-68
2020/12/15 00:09:41;;;;;;;3.90;3.50;;;9.20;99.90;;;;;;4983964;28;20637;-69
2020/12/15 00:12:26;;;;;;;4.40;4.07;;;9.10;99.90;;;;;;4992768;28;21222;-69
2020/12/15 00:15:10;;;;;;;3.90;3.60;;;9.10;99.90;;;;;;4998592;28;20604;-69
2020/12/15 00:17:55;;;;;;;5.63;3.80;;;9.20;99.90;;;;;;4997613;28;20679;-68
2020/12/15 00:20:40;;;;;;;3.80;3.50;;;9.10;99.90;;;;;;4996222;28;20608;-68
2020/12/15 00:23:25;;;;;;;7.20;4.10;;;9.00;99.90;;;;;;5007119;28;20721;-69
2020/12/15 00:26:09;;;;;;;3.83;3.53;;;9.10;99.90;;;;;;5019415;28;20608;-68
2020/12/15 00:28:54;;;;;;;3.93;3.53;;;9.10;99.90;;;;;;4991894;28;20659;-69
2020/12/15 00:31:39;;;;;;;3.63;3.33;;;9.00;99.90;;;;;;5010513;28;20632;-69
2020/12/15 00:34:23;;;;;;;4.43;3.83;;;9.00;99.90;;;;;;4983137;28;21159;-69
2020/12/15 00:37:08;;;;;;;4.47;4.17;;;9.00;99.90;;;;;;5003892;28;21137;-69
2020/12/15 00:39:53;;;;;;;4.07;3.50;;;9.10;99.90;;;;;;5024992;28;20617;-69
2020/12/15 00:42:37;;;;;;;3.90;3.60;;;9.10;99.90;;;;;;5021192;28;20658;-68
2020/12/15 00:45:21;;;;;;;4.40;4.00;;;9.20;99.90;;;;;;5013905;28;21100;-68
2020/12/15 00:48:06;;;;;;;4.00;3.63;;;9.20;99.90;;;;;;4987854;28;20655;-68
2020/12/15 00:50:52;;;;;;;3.80;3.50;;;9.10;99.90;;;;;;5013520;28;20780;-69
2020/12/15 00:53:36;;;;;;;3.97;3.67;;;9.00;99.90;;;;;;4994459;28;20581;-68
2020/12/15 00:56:21;;;;;;;5.60;4.40;;;9.00;99.90;;;;;;5014118;28;21179;-69
2020/12/15 00:59:05;;;;;;;4.40;4.00;;;9.00;99.90;;;;;;4982346;28;20583;-68
2020/12/15 01:01:50;;;;;;;4.60;4.20;;;9.00;99.90;;;;;;5033824;28;20645;-68
2020/12/15 01:04:34;;;;;;;4.30;3.90;;;9.00;99.90;;;;;;5018105;28;22457;-69
2020/12/15 01:07:18;;;;;;;4.20;3.80;;;9.00;99.90;;;;;;5003269;28;20702;-68
2020/12/15 01:10:05;;;;;;;4.57;4.17;;;9.00;99.90;;;;;;5019670;28;20615;-69
2020/12/15 01:12:49;;;;;;;5.10;4.60;;;8.90;99.90;;;;;;4993334;28;20667;-69
2020/12/15 01:15:34;;;;;;;4.50;4.10;;;8.90;99.90;;;;;;4992213;28;20612;-69
2020/12/15 01:18:19;;;;;;;4.93;4.53;;;8.90;99.90;;;;;;4999643;28;20637;-68
2020/12/15 01:21:04;;;;;;;4.70;4.30;;;8.90;99.90;;;;;;4995966;28;21357;-68
2020/12/15 01:23:48;;;;;;;4.50;4.10;;;9.00;99.90;;;;;;5014552;28;20628;-69
2020/12/15 01:26:33;;;;;;;4.67;4.27;;;8.80;99.90;;;;;;5001018;28;20675;-69
2020/12/15 01:29:17;;;;;;;5.23;4.73;;;8.80;99.90;;;;;;5018350;28;20775;-69
2020/12/15 01:32:03;;;;;;;4.90;4.50;;;8.70;99.90;;;;;;5016304;28;21136;-68
2020/12/15 01:34:47;;;;;;;5.10;4.60;;;8.70;99.90;;;;;;5022005;28;20766;-68
2020/12/15 01:37:32;;;;;;;4.90;4.20;;;8.60;99.90;;;;;;4998970;28;20665;-69
2020/12/15 01:40:17;;;;;;;4.90;4.43;;;8.60;99.90;;;;;;5026550;28;20647;-68
2020/12/15 01:43:01;;;;;;;4.20;3.90;;;8.60;99.90;;;;;;5015501;28;23417;-70
2020/12/15 01:45:46;;;;;;;4.53;4.13;;;8.50;99.90;;;;;;5027080;28;20633;-68
2020/12/15 01:48:30;;;;;;;4.97;4.57;;;8.50;99.90;;;;;;5027544;28;20648;-68
2020/12/15 01:51:18;;;;;;;4.90;4.50;;;8.50;99.90;;;;;;5011364;28;21029;-68
2020/12/15 01:54:04;;;;;;;5.20;4.80;;;8.50;99.90;;;;;;5006967;28;20569;-69
2020/12/15 01:56:48;;;;;;;5.83;5.27;;;8.50;99.90;;;;;;4992756;28;20667;-69
2020/12/15 01:59:33;;;;;;;4.97;4.57;;;8.40;99.90;;;;;;5007178;28;20961;-69
2020/12/15 02:02:22;;;;;;;5.00;4.60;;;8.40;99.90;;;;;;5003665;28;20646;-69
2020/12/15 02:05:08;;;;;;;4.67;4.27;;;8.50;99.90;;;;;;5009603;28;20649;-69
2020/12/15 02:07:52;;;;;;;4.87;4.47;;;8.50;99.90;;;;;;5004601;28;20645;-68
2020/12/15 02:10:37;;;;;;;5.00;4.60;;;8.40;99.90;;;;;;5020286;28;21182;-69
2020/12/15 02:13:27;;;;;;;5.90;5.20;;;8.50;99.90;;;;;;5016291;28;20735;-69
2020/12/15 02:16:12;;;;;;;5.17;4.70;;;8.50;99.90;;;;;;4994056;28;20698;-69
2020/12/15 02:18:57;;;;;;;5.20;4.80;;;8.50;99.90;;;;;;5016513;28;20599;-69
2020/12/15 02:22:00;;;;;;;5.33;4.93;;;8.50;99.90;;;;;;5021381;28;20644;-69
2020/12/15 02:24:44;;;;;;;5.33;4.87;;;8.40;99.90;;;;;;4999149;28;20624;-68
2020/12/15 02:27:28;;;;;;;4.80;4.40;;;8.60;99.90;;;;;;5022199;28;20735;-69
2020/12/15 02:30:15;;;;;;;5.50;5.00;;;8.50;99.90;;;;;;5016774;28;21271;-69
2020/12/15 02:33:00;;;;;;;5.30;4.80;;;8.50;99.90;;;;;;4997481;28;20749;-69
2020/12/15 02:35:45;;;;;;;5.07;4.67;;;8.50;99.90;;;;;;5007162;28;20973;-69
2020/12/15 02:38:29;;;;;;;5.47;4.97;;;8.40;99.90;;;;;;5010325;28;20620;-68
2020/12/15 02:41:13;;;;;;;5.70;5.20;;;8.30;99.90;;;;;;5019564;28;20634;-68
2020/12/15 02:43:58;;;;;;;4.70;4.30;;;8.40;99.90;;;;;;5020691;28;21015;-68
2020/12/15 02:46:42;;;;;;;5.50;5.00;;;8.30;99.90;;;;;;5031787;23;20675;-64
2020/12/15 02:49:27;;;;;;;5.23;4.73;;;8.30;99.90;;;;;;5028255;28;20714;-64
2020/12/15 02:52:11;;;;;;;4.80;4.40;;;8.40;99.90;;;;;;5001226;28;20655;-64
2020/12/15 02:54:56;;;;;;;5.63;5.10;;;8.40;99.90;;;;;;5027742;28;20635;-64
2020/12/15 02:57:41;;;;;;;5.63;5.13;;;8.40;99.90;;;;;;5032058;28;20639;-64
2020/12/15 03:00:26;;;;;;;5.60;5.10;;;8.50;99.90;;;;;;5007898;28;20642;-65
2020/12/15 03:03:10;;;;;;;4.77;4.37;;;8.50;99.90;;;;;;5001700;28;20659;-64
2020/12/15 03:05:55;;;;;;;5.20;4.80;;;8.50;99.90;;;;;;5008818;28;20594;-62
2020/12/15 03:08:40;;;;;;;5.30;4.83;;;8.50;99.90;;;;;;5008203;28;20651;-62
2020/12/15 03:11:32;;;;;;;5.63;5.17;;;8.50;99.90;;;;;;4996616;28;20791;-62
2020/12/15 03:14:16;;;;;;;6.07;5.10;;;8.50;99.90;;;;;;5014764;28;20599;-63
2020/12/15 03:17:01;;;;;;;5.67;5.17;;;8.50;99.90;;;;;;5033952;28;21213;-63
2020/12/15 03:19:46;;;;;;;5.87;5.37;;;8.50;99.90;;;;;;5003323;28;20635;-63
2020/12/15 03:22:31;;;;;;;5.37;4.87;;;8.50;99.90;;;;;;4999076;28;21137;-63
2020/12/15 03:25:19;;;;;;;5.10;4.60;;;8.50;99.90;;;;;;5022629;28;20615;-63
2020/12/15 03:28:04;;;;;;;5.13;4.73;;;8.50;99.90;;;;;;5011128;28;20651;-63
2020/12/15 03:30:49;;;;;;;6.10;5.50;;;8.50;99.90;;;;;;4991933;28;22343;-63
2020/12/15 03:33:34;;;;;;;5.47;4.90;;;8.50;99.90;;;;;;5009157;28;20628;-63
2020/12/15 03:36:18;;;;;;;5.63;5.13;;;8.50;99.90;;;;;;4998875;28;20589;-63
2020/12/15 03:39:08;;;;;;;5.03;4.63;;;8.60;99.90;;;;;;5001624;28;20635;-63
2020/12/15 03:41:54;;;;;;;6.30;5.53;;;8.50;99.90;;;;;;5000965;28;20787;-63
2020/12/15 03:44:41;;;;;;;6.20;5.70;;;8.50;99.90;;;;;;4998872;28;20643;-63
2020/12/15 03:47:25;;;;;;;5.60;5.10;;;8.50;99.90;;;;;;5025491;28;21017;-63
2020/12/15 03:50:10;;;;;;;5.53;5.00;;;8.50;99.90;;;;;;5013553;28;21192;-63
2020/12/15 03:52:54;;;;;;;5.67;5.17;;;8.50;99.90;;;;;;5004404;28;21205;-63
2020/12/15 03:55:39;;;;;;;6.20;5.60;;;8.50;99.90;;;;;;5022113;28;20710;-63
2020/12/15 03:58:23;;;;;;;5.63;5.13;;;8.50;99.90;;;;;;5021203;28;20650;-63
2020/12/15 04:01:07;;;;;;;6.23;5.63;;;8.50;99.90;;;;;;5004708;28;20647;-63
2020/12/15 04:03:52;;;;;;;5.97;5.47;;;8.50;99.90;;;;;;5056861;28;21232;-63
2020/12/15 04:06:37;;;;;;;6.50;5.90;;;8.40;99.90;;;;;;5025451;28;21161;-63
2020/12/15 04:09:22;;;;;;;5.40;4.90;;;8.40;99.90;;;;;;5052774;28;20615;-63
2020/12/15 04:12:06;;;;;;;7.07;5.50;;;8.40;99.90;;;;;;5008675;28;20680;-63
2020/12/15 04:14:51;;;;;;;5.90;5.30;;;8.40;99.90;;;;;;4994669;28;20630;-63
2020/12/15 04:17:36;;;;;;;5.97;5.47;;;8.40;99.90;;;;;;5006075;28;21193;-63
2020/12/15 04:20:23;;;;;;;5.97;5.40;;;8.40;99.90;;;;;;5005211;28;20674;-63
2020/12/15 04:23:08;;;;;;;5.90;5.30;;;8.40;99.90;;;;;;5007206;28;20655;-64
2020/12/15 04:25:55;;;;;;;5.67;5.17;;;8.40;99.90;;;;;;5006138;28;20588;-63
2020/12/15 04:28:39;;;;;;;6.30;5.70;;;8.40;99.90;;;;;;5003473;28;20635;-63
2020/12/15 04:31:29;;;;;;;5.57;5.07;;;8.40;99.90;;;;;;5000900;28;20647;-63
2020/12/15 04:34:13;;;;;;;6.00;5.50;;;8.40;99.90;;;;;;5003667;28;20588;-64
2020/12/15 04:37:03;;;;;;;6.03;5.47;;;8.40;99.90;;;;;;5001413;28;21088;-63
2020/12/15 04:39:47;;;;;;;6.43;5.83;;;8.40;99.90;;;;;;5009589;28;21209;-63
2020/12/15 04:42:34;;;;;;;6.63;5.93;;;8.40;99.90;;;;;;5011936;28;21278;-63
2020/12/15 04:45:20;;;;;;;6.27;5.67;;;8.40;99.90;;;;;;5020194;28;20704;-63
2020/12/15 04:48:07;;;;;;;6.93;5.70;;;8.40;99.90;;;;;;5038462;28;20737;-63
2020/12/15 04:50:58;;;;;;;6.57;5.97;;;8.40;99.90;;;;;;5019593;28;20685;-63
2020/12/15 04:53:45;;;;;;;6.30;5.80;;;8.40;99.90;;;;;;5021708;28;20790;-63
2020/12/15 04:56:33;;;;;;;6.70;6.10;;;8.30;99.90;;;;;;5028695;28;20622;-63
2020/12/15 04:59:23;;;;;;;6.70;5.90;;;8.40;99.90;;;;;;5034554;28;20610;-63
2020/12/15 05:02:08;;;;;;;6.80;6.13;;;8.30;99.90;;;;;;5029464;28;20768;-63
2020/12/15 05:04:53;;;;;;;6.60;6.00;;;8.40;99.90;;;;;;5051093;28;20973;-63
2020/12/15 05:07:44;;;;;;;6.43;5.83;;;8.30;99.90;;;;;;5020134;28;20806;-63
2020/12/15 05:10:29;;;;;;;5.93;5.43;;;8.30;99.90;;;;;;5042285;28;20582;-63
2020/12/15 05:13:14;;;;;;;6.83;6.13;;;8.40;99.90;;;;;;5036082;28;20602;-63
2020/12/15 05:15:58;;;;;;;6.70;6.10;;;8.40;99.90;;;;;;5046297;28;21161;-63
2020/12/15 05:18:42;;;;;;;6.33;5.73;;;8.50;99.90;;;;;;5018124;28;20650;-63
2020/12/15 05:21:27;;;;;;;6.40;5.80;;;8.40;99.90;;;;;;5014254;28;20639;-63
2020/12/15 05:24:11;;;;;;;6.70;6.00;;;8.50;99.90;;;;;;5001399;28;21217;-63
2020/12/15 05:27:00;;;;;;;6.70;5.80;;;8.50;99.90;;;;;;5017478;28;21014;-63
2020/12/15 05:29:45;;;;;;;6.37;5.77;;;8.50;99.90;;;;;;5000300;28;20781;-63
2020/12/15 05:32:29;;;;;;;6.40;5.90;;;8.40;99.90;;;;;;5005178;28;21222;-63
2020/12/15 05:35:15;;;;;;;6.47;5.87;;;8.40;99.90;;;;;;5026020;28;20585;-63
2020/12/15 05:38:02;;;;;;;6.43;5.80;;;8.60;99.90;;;;;;4998412;28;20712;-63
2020/12/15 05:40:47;;;;;;;7.00;5.60;;;8.60;99.90;;;;;;5025762;28;20694;-63
2020/12/15 05:43:33;;;;;;;6.73;6.00;;;8.60;99.90;;;;;;5018246;28;20617;-63
2020/12/15 05:46:21;;;;;;;6.47;5.87;;;8.50;99.90;;;;;;5022630;28;20699;-63
2020/12/15 05:49:06;;;;;;;7.20;5.93;;;8.50;99.90;;;;;;5017662;28;20634;-63
2020/12/15 05:51:51;;;;;;;6.20;5.60;;;8.60;99.90;;;;;;4998408;28;20646;-63
2020/12/15 05:54:36;;;;;;;6.13;5.63;;;8.50;99.90;;;;;;5030842;28;20568;-63
2020/12/15 05:57:28;;;;;;;5.93;5.43;;;8.50;99.90;;;;;;4997932;28;21246;-63
2020/12/15 06:00:13;;;;;;;6.73;6.03;;;8.50;99.90;;;;;;4997144;28;20619;-63
2020/12/15 06:03:01;;;;;;;6.30;5.70;;;8.50;99.90;;;;;;4994148;28;21031;-63
2020/12/15 06:05:48;;;;;;;7.03;6.43;;;8.50;99.90;;;;;;5024262;28;20989;-63
2020/12/15 06:08:36;;;;;;;7.23;6.50;;;8.50;99.90;;;;;;4996985;28;20666;-63
2020/12/15 06:11:21;;;;;;;6.63;6.03;;;8.60;99.90;;;;;;5003939;28;20667;-62
2020/12/15 06:14:08;;;;;;;7.17;6.47;;;8.50;99.90;;;;;;5034051;28;20610;-62
2020/12/15 06:16:53;;;;;;;7.10;6.30;;;8.60;99.90;;;;;;5006279;28;21012;-62
2020/12/15 06:19:38;;;;;;;6.47;5.87;;;8.60;99.90;;;;;;5002644;28;21198;-63
2020/12/15 06:22:23;;;;;;;7.90;6.83;;;8.70;99.90;;;;;;4996132;28;20655;-63
2020/12/15 06:25:11;;;;;;;7.37;6.50;;;8.60;99.90;;;;;;5002394;28;20839;-63
2020/12/15 06:28:03;;;;;;;8.93;6.97;;;8.60;99.90;;;;;;5014474;28;20973;-63
2020/12/15 06:30:57;;;;;;;8.40;6.70;;;8.60;99.90;;;;;;5022240;28;21309;-63
2020/12/15 06:33:42;;;;;;;7.23;6.27;;;8.60;99.90;;;;;;5017024;28;20720;-63
2020/12/15 06:36:33;;;;;;;8.77;6.83;;;8.50;99.90;;;;;;5025209;28;20760;-63
2020/12/15 06:39:18;;;;;;;7.57;6.80;;;8.50;99.90;;;;;;5018241;28;20596;-63
2020/12/15 06:42:06;;;;;;;8.43;7.10;;;8.50;99.90;;;;;;4995090;28;20633;-63
2020/12/15 06:45:10;;;;;;;8.43;6.70;;;8.50;99.90;;;;;;5026373;28;20828;-63
2020/12/15 06:47:57;;;;;;;7.90;7.20;;;8.50;99.90;;;;;;5006991;28;20671;-63
2020/12/15 06:50:46;;;;;;;7.33;6.60;;;8.60;99.90;;;;;;5005070;28;20682;-63
2020/12/15 06:53:31;;;;;;;9.73;7.33;;;8.50;99.90;;;;;;5008459;28;20636;-63
2020/12/15 06:56:25;;;;;;;7.50;6.80;;;8.50;99.90;;;;;;5003044;28;20685;-63
2020/12/15 06:59:10;;;;;;;7.43;6.73;;;8.60;99.90;;;;;;5000741;28;21178;-63
2020/12/15 07:02:12;;;;;;;11.60;6.80;;;8.60;99.90;;;;;;5031817;28;21265;-63
2020/12/15 07:05:16;;;;;;;8.00;7.20;;;8.50;99.90;;;;;;4985622;28;21375;-63
2020/12/15 07:08:07;;;;;;;8.97;7.20;;;8.50;99.90;;;;;;5013842;28;20673;-65
2020/12/15 07:10:51;;;;;;;8.10;7.40;;;8.60;99.90;;;;;;5006295;28;20623;-63
2020/12/15 07:13:36;;;;;;;8.37;7.57;;;8.60;99.90;;;;;;5037394;28;21175;-64
2020/12/15 07:16:21;;;;;;;7.63;6.67;;;8.60;99.90;;;;;;5003604;28;20591;-65
2020/12/15 07:19:05;;;;;;;7.47;6.77;;;8.70;99.90;;;;;;5017074;28;20596;-64
2020/12/15 07:21:50;;;;;;;8.27;6.30;;;8.60;99.90;;;;;;5037279;28;20674;-65
2020/12/15 07:24:35;;;;;;;9.00;7.60;;;8.60;99.90;;;;;;5010600;28;20663;-64
2020/12/15 07:27:22;;;;;;;7.50;6.80;;;8.60;99.90;;;;;;5036541;28;20731;-63
2020/12/15 07:30:08;;;;;;;7.27;6.57;;;8.70;99.90;;;;;;5004294;28;20676;-63
2020/12/15 07:32:53;;;;;;;7.77;6.90;;;8.70;99.90;;;;;;5013930;28;20719;-63
2020/12/15 07:35:37;;;;;;;8.30;7.50;;;8.70;99.90;;;;;;5006923;28;21028;-64
2020/12/15 07:38:24;;;;;;;9.00;7.30;;;8.60;99.90;;;;;;5035845;28;20638;-65
2020/12/15 07:41:16;;;;;;;7.60;6.80;;;8.70;99.90;;;;;;5010493;28;20631;-64
2020/12/15 07:44:00;;;;;;;7.93;7.07;;;8.70;99.90;;;;;;5009147;28;20976;-64
2020/12/15 07:46:47;;;;;;;11.33;7.10;;;8.80;99.90;;;;;;5039792;28;20735;-65
2020/12/15 07:49:32;;;;;;;8.20;7.20;;;8.80;99.90;;;;;;5011736;28;21023;-64
2020/12/15 07:52:27;;;;;;;7.60;6.83;;;8.80;99.90;;;;;;5011738;28;20615;-64
2020/12/15 07:55:14;;;;;;;8.03;6.70;;;8.70;99.90;;;;;;5033439;28;20608;-64
2020/12/15 07:57:58;;;;;;;7.90;7.10;;;8.70;99.90;;;;;;5036912;28;21229;-64
2020/12/15 08:00:43;;;;;;;7.60;6.60;;;8.70;99.90;;;;;;5000642;28;20584;-64
2020/12/15 08:03:27;;;;;;;9.47;7.30;;;8.70;99.90;;;;;;5041079;28;20936;-64
2020/12/15 08:06:12;;;;;;;8.53;7.63;;;8.80;99.90;;;;;;5028076;28;20690;-64
2020/12/15 08:08:58;;;;;;;10.10;7.57;;;8.70;99.90;;;;;;5037422;28;20634;-64
2020/12/15 08:11:48;;;;;;;6.97;6.23;;;8.80;99.90;;;;;;5010334;28;20643;-64
2020/12/15 08:14:33;;;;;;;8.50;7.60;;;8.70;99.90;;;;;;5001774;28;20990;-64
2020/12/15 08:17:18;;;;;;;7.87;7.07;;;8.80;99.90;;;;;;5039398;28;20718;-64
2020/12/15 08:20:07;;;;;;;8.30;7.33;;;8.90;99.90;;;;;;5007697;28;20575;-64
2020/12/15 08:23:03;;;;;;;8.03;7.23;;;8.90;99.90;;;;;;5007392;28;21218;-64
2020/12/15 08:25:47;;;;;;;8.20;6.80;;;8.80;99.90;;;;;;5022106;28;20584;-64
2020/12/15 08:28:32;;;;;;;7.53;6.80;;;8.80;99.90;;;;;;5009777;28;20635;-63
2020/12/15 08:31:18;;;;;;;7.90;7.03;;;8.80;99.90;;;;;;5009250;28;20628;-64
2020/12/15 08:34:11;;;;;;;8.97;7.53;;;8.90;99.90;;;;;;5041921;28;20583;-64
2020/12/15 08:36:56;;;;;;;7.97;7.23;;;9.00;99.90;;;;;;5032884;28;20644;-64
2020/12/15 08:39:42;;;;;;;7.87;6.93;;;9.00;99.90;;;;;;5013534;28;20954;-67
2020/12/15 08:42:27;;;;;;;8.60;7.03;;;9.00;99.90;;;;;;5031123;28;20643;-64
2020/12/15 08:45:17;;;;;;;7.73;7.03;;;9.00;99.90;;;;;;5032876;28;20635;-64
2020/12/15 08:48:02;;;;;;;12.27;8.33;;;8.90;99.90;;;;;;5033689;28;20735;-64
2020/12/15 08:50:48;;;;;;;8.47;7.30;;;8.90;99.90;;;;;;5002682;28;20601;-64
2020/12/15 08:53:32;;;;;;;9.67;8.13;;;8.90;99.90;;;;;;5008284;28;20604;-64
2020/12/15 08:56:17;;;;;;;9.30;7.67;;;9.00;99.90;;;;;;5001720;28;20582;-64
2020/12/15 08:59:16;;;;;;;9.50;8.60;;;9.00;99.90;;;;;;4998996;28;20577;-64
2020/12/15 09:02:00;;;;;;;8.40;7.60;;;9.10;99.90;;;;;;5022897;28;20739;-64
2020/12/15 09:04:45;;;;;;;8.93;7.90;;;9.10;99.90;;;;;;5003269;28;20623;-63
2020/12/15 09:07:30;;;;;;;8.70;7.60;;;9.20;99.90;;;;;;5008318;28;20714;-64
2020/12/15 09:10:16;;;;;;;8.60;7.70;;;9.20;99.90;;;;;;5033806;28;20597;-64
2020/12/15 09:13:04;;;;;;;9.07;7.60;;;9.20;99.90;;;;;;5005470;28;20714;-64
2020/12/15 09:15:54;;;;;;;10.13;8.10;;;9.20;99.90;;;;;;5004245;28;20686;-64
2020/12/15 09:18:39;;;;;;;10.20;8.00;;;9.10;99.90;;;;;;5004259;28;20655;-64
2020/12/15 09:21:24;;;;;;;8.20;7.40;;;9.20;99.90;;;;;;5018853;28;20647;-64
2020/12/15 09:24:09;;;;;;;9.03;8.13;;;9.20;99.90;;;;;;5008338;28;20702;-64
2020/12/15 09:26:54;;;;;;;10.07;7.70;;;9.20;99.90;;;;;;5006271;28;20650;-64
2020/12/15 09:29:38;;;;;;;8.80;7.90;;;9.20;99.90;;;;;;5001133;28;20573;-64
2020/12/15 09:32:33;;;;;;;10.43;8.23;;;9.30;99.90;;;;;;5005882;28;20627;-64
2020/12/15 09:35:17;;;;;;;11.30;8.80;;;9.30;99.90;;;;;;5005113;28;20592;-64
2020/12/15 09:38:02;;;;;;;9.80;8.80;;;9.20;99.90;;;;;;5005513;28;20650;-64
2020/12/15 09:40:46;;;;;;;10.33;8.07;;;9.30;99.90;;;;;;5003707;28;20612;-64
2020/12/15 09:43:31;;;;;;;10.40;8.97;;;9.30;99.90;;;;;;5008193;28;20572;-64
2020/12/15 09:46:15;;;;;;;11.93;8.60;;;9.20;99.90;;;;;;5005558;28;20692;-64
2020/12/15 09:49:00;;;;;;;10.97;8.17;;;9.30;99.90;;;;;;5008065;28;20611;-64
2020/12/15 09:51:47;;;;;;;9.97;8.97;;;9.40;99.90;;;;;;5011083;28;20666;-64
2020/12/15 09:54:32;;;;;;;9.70;8.70;;;9.40;99.90;;;;;;5013168;28;21109;-64
2020/12/15 09:57:17;;;;;;;9.90;8.80;;;9.50;99.90;;;;;;5019920;28;20619;-64
2020/12/15 10:00:01;;;;;;;10.60;9.50;;;9.50;99.90;;;;;;5010973;28;21149;-64
2020/12/15 10:02:46;;;;;;;10.00;8.93;;;9.50;99.90;;;;;;5012250;28;20620;-64
2020/12/15 10:05:30;;;;;;;9.60;8.60;;;9.50;99.90;;;;;;4996149;28;20616;-64
2020/12/15 10:08:15;;;;;;;9.77;8.23;;;9.60;99.90;;;;;;5036266;28;20705;-64
2020/12/15 10:10:59;;;;;;;11.20;8.67;;;9.60;99.90;;;;;;5006963;28;20627;-64
2020/12/15 10:13:44;;;;;;;9.93;8.93;;;9.60;99.90;;;;;;5012402;28;20568;-64
2020/12/15 10:16:29;;;;;;;10.73;9.13;;;9.70;99.90;;;;;;5015348;28;20623;-65
2020/12/15 10:19:14;;;;;;;9.50;8.50;;;9.70;99.90;;;;;;5014064;28;20620;-64
2020/12/15 10:21:59;;;;;;;8.93;8.03;;;9.70;99.90;;;;;;5012005;28;20806;-64
2020/12/15 10:24:46;;;;;;;9.77;8.77;;;9.70;99.90;;;;;;5007729;28;21306;-64
2020/12/15 10:27:30;;;;;;;10.30;9.20;;;9.80;99.90;;;;;;5005851;28;20651;-64
2020/12/15 10:30:15;;;;;;;9.10;8.20;;;9.80;99.90;;;;;;5005999;28;20580;-64
2020/12/15 10:33:00;;;;;;;9.30;8.40;;;9.80;99.90;;;;;;5037293;28;20632;-64
2020/12/15 10:35:44;;;;;;;12.07;8.23;;;9.90;99.90;;;;;;5010320;28;20600;-64
2020/12/15 10:38:29;;;;;;;10.37;8.00;;;9.90;99.90;;;;;;5001704;28;20630;-65
2020/12/15 10:41:14;;;;;;;9.90;8.90;;;9.90;99.90;;;;;;5007370;28;20723;-64
2020/12/15 10:43:58;;;;;;;11.10;8.97;;;9.90;99.90;;;;;;5009673;28;21193;-63
2020/12/15 10:46:44;;;;;;;10.57;9.57;;;10.00;99.90;;;;;;5003371;28;20671;-64
2020/12/15 10:49:28;;;;;;;8.93;8.03;;;10.10;99.90;;;;;;5010763;28;20973;-64
2020/12/15 10:52:13;;;;;;;10.10;9.10;;;10.20;99.90;;;;;;5008173;28;20635;-64
2020/12/15 10:54:57;;;;;;;10.50;9.40;;;10.20;99.90;;;;;;5008427;28;20659;-64
2020/12/15 10:57:42;;;;;;;9.10;8.20;;;10.30;99.90;;;;;;5011571;28;20716;-64
2020/12/15 11:00:26;;;;;;;8.73;7.83;;;10.40;99.90;;;;;;5038373;28;20697;-64
2020/12/15 11:03:11;;;;;;;9.10;8.20;;;10.30;99.90;;;;;;5039303;28;20627;-64
2020/12/15 11:05:56;;;;;;;9.43;8.37;;;10.30;99.90;;;;;;5003617;28;20655;-64
2020/12/15 11:08:41;;;;;;;10.87;8.23;;;10.30;99.90;;;;;;5003496;28;21113;-64
2020/12/15 11:11:25;;;;;;;10.80;8.70;;;10.30;99.90;;;;;;5035122;28;20682;-64
2020/12/15 11:14:10;;;;;;;9.27;8.37;;;10.40;99.90;;;;;;5035770;28;21193;-64
2020/12/15 11:16:57;;;;;;;10.23;8.77;;;10.30;99.90;;;;;;5034934;28;20706;-64
2020/12/15 11:19:42;;;;;;;9.67;8.57;;;10.30;99.90;;;;;;5009287;28;20587;-64
2020/12/15 11:22:26;;;;;;;9.40;8.20;;;10.30;99.90;;;;;;5035091;28;21240;-64
2020/12/15 11:25:11;;;;;;;9.60;8.60;;;10.30;99.90;;;;;;5036150;28;20620;-64
2020/12/15 11:27:55;;;;;;;9.03;8.23;;;10.40;99.90;;;;;;5009852;28;20717;-64
2020/12/15 11:30:40;;;;;;;10.33;9.00;;;10.30;99.90;;;;;;5034538;28;20621;-64
2020/12/15 11:33:24;;;;;;;8.97;8.07;;;10.30;99.90;;;;;;5027980;28;20591;-64
2020/12/15 11:36:09;;;;;;;16.73;10.30;;;10.30;99.90;;;;;;5023621;28;20600;-64
2020/12/15 11:38:53;;;;;;;10.47;9.30;;;10.30;99.90;;;;;;5031645;28;20697;-64
2020/12/15 11:41:39;;;;;;;10.93;9.83;;;10.40;99.90;;;;;;5026318;28;21347;-65
2020/12/15 11:44:23;;;;;;;11.30;9.43;;;10.40;99.90;;;;;;5037722;28;21322;-64
2020/12/15 11:47:09;;;;;;;10.97;9.87;;;10.40;99.90;;;;;;5031977;28;20664;-64
2020/12/15 11:49:53;;;;;;;10.57;9.47;;;10.40;99.90;;;;;;5007871;28;20603;-64
2020/12/15 11:52:38;;;;;;;10.80;9.70;;;10.40;99.90;;;;;;5032715;28;20636;-64
2020/12/15 11:55:23;;;;;;;10.10;9.13;;;10.40;99.90;;;;;;5032771;28;20578;-65
2020/12/15 11:58:07;;;;;;;11.53;10.43;;;10.40;99.90;;;;;;5029413;28;20651;-64
2020/12/15 12:00:52;;;;;;;11.83;10.57;;;10.40;99.90;;;;;;5031753;28;20655;-65
2020/12/15 12:03:36;;;;;;;11.70;10.53;;;10.40;99.90;;;;;;5034703;28;20596;-63
2020/12/15 12:06:21;;;;;;;11.90;10.00;;;10.40;99.90;;;;;;5001029;28;20734;-64
2020/12/15 12:09:05;;;;;;;11.20;10.10;;;10.30;99.90;;;;;;5031214;28;20600;-64
2020/12/15 12:11:50;;;;;;;11.43;10.33;;;10.30;99.90;;;;;;5033721;28;20751;-64
2020/12/15 12:14:35;;;;;;;10.70;9.60;;;10.40;99.90;;;;;;5029937;28;20977;-65
2020/12/15 12:17:19;;;;;;;10.40;9.40;;;10.40;99.90;;;;;;5029777;28;21006;-64
2020/12/15 12:20:04;;;;;;;10.13;9.17;;;10.40;99.90;;;;;;5033082;28;20584;-64
2020/12/15 12:22:48;;;;;;;10.70;9.67;;;10.40;99.90;;;;;;5029736;28;21213;-64
2020/12/15 12:25:33;;;;;;;11.10;10.00;;;10.40;99.90;;;;;;5036181;28;21008;-64
2020/12/15 12:28:17;;;;;;;11.67;10.43;;;10.40;99.90;;;;;;5031416;28;20659;-64
2020/12/15 12:31:02;;;;;;;11.93;10.27;;;10.40;99.90;;;;;;5031319;28;20624;-64
2020/12/15 12:33:46;;;;;;;10.80;9.70;;;10.40;99.90;;;;;;5010941;28;20666;-64
2020/12/15 12:36:34;;;;;;;11.33;10.17;;;10.50;99.90;;;;;;5005843;28;20607;-64
2020/12/15 12:39:19;;;;;;;11.33;10.13;;;10.50;99.90;;;;;;5006506;28;20607;-64
2020/12/15 12:42:04;;;;;;;11.53;10.33;;;10.50;99.90;;;;;;5003542;28;21120;-65
2020/12/15 12:44:49;;;;;;;11.47;10.27;;;10.60;99.90;;;;;;5038225;28;20628;-65
2020/12/15 12:47:33;;;;;;;10.90;9.80;;;10.50;99.90;;;;;;5009289;28;20654;-64
2020/12/15 12:50:17;;;;;;;11.43;10.10;;;10.60;99.90;;;;;;5034236;28;20606;-64
2020/12/15 12:53:03;;;;;;;10.67;9.60;;;10.70;99.90;;;;;;5004023;28;20639;-64
2020/12/15 12:55:47;;;;;;;11.43;10.23;;;10.70;99.90;;;;;;4999931;28;20581;-64
2020/12/15 12:58:33;;;;;;;11.90;10.60;;;10.60;99.90;;;;;;5002540;28;20730;-64
2020/12/15 13:01:22;;;;;;;11.90;10.70;;;10.60;99.90;;;;;;5004953;28;21241;-64
2020/12/15 13:04:07;;;;;;;10.97;9.87;;;10.60;99.90;;;;;;5007628;28;20707;-64
2020/12/15 13:06:52;;;;;;;11.67;10.57;;;10.70;99.90;;;;;;5028434;28;20730;-64
2020/12/15 13:09:38;;;;;;;11.10;10.00;;;10.70;99.90;;;;;;5007800;28;20660;-64
2020/12/15 13:12:22;;;;;;;11.60;10.20;;;10.60;99.90;;;;;;5000374;28;20639;-64
2020/12/15 13:15:07;;;;;;;11.17;9.93;;;10.60;99.90;;;;;;5030956;28;21178;-64
2020/12/15 13:17:51;;;;;;;10.10;9.10;;;10.70;99.90;;;;;;5004466;28;20834;-65
2020/12/15 13:20:36;;;;;;;11.13;10.07;;;10.70;99.90;;;;;;5029005;28;20803;-64
2020/12/15 13:23:21;;;;;;;10.97;9.83;;;10.70;99.90;;;;;;5005377;28;20577;-64
2020/12/15 13:26:05;;;;;;;10.90;9.80;;;10.70;99.90;;;;;;5006481;28;20702;-65
2020/12/15 13:28:50;;;;;;;11.10;9.90;;;10.70;99.90;;;;;;5002848;28;20611;-65
2020/12/15 13:31:35;;;;;;;11.47;10.37;;;10.70;99.90;;;;;;5032663;28;20627;-63
2020/12/15 13:34:19;;;;;;;10.97;9.80;;;10.70;99.90;;;;;;5000832;28;20961;-64
2020/12/15 13:37:04;;;;;;;11.97;10.10;;;10.70;99.90;;;;;;5001376;28;20639;-64
2020/12/15 13:39:48;;;;;;;11.07;9.97;;;10.70;99.90;;;;;;5009867;28;20650;-64
2020/12/15 13:42:35;;;;;;;11.03;9.60;;;10.70;99.90;;;;;;5005144;28;20643;-65
2020/12/15 13:45:19;;;;;;;11.23;10.13;;;10.70;99.90;;;;;;5036910;28;20636;-64
2020/12/15 13:48:04;;;;;;;11.10;10.03;;;10.60;99.90;;;;;;5003181;28;20777;-65
2020/12/15 13:50:48;;;;;;;11.70;10.00;;;10.60;99.90;;;;;;5004817;28;20955;-65
2020/12/15 13:53:33;;;;;;;11.40;10.20;;;10.60;99.90;;;;;;5014985;28;20580;-65
2020/12/15 13:56:17;;;;;;;12.00;10.30;;;10.60;99.90;;;;;;5007410;28;20655;-65
2020/12/15 13:59:02;;;;;;;11.53;10.33;;;10.70;99.90;;;;;;5003159;28;20599;-64
2020/12/15 14:01:47;;;;;;;11.43;10.43;;;10.70;99.90;;;;;;5028715;28;20640;-65
2020/12/15 14:04:32;;;;;;;11.30;9.77;;;10.60;99.90;;;;;;5007569;28;20603;-64
2020/12/15 14:07:17;;;;;;;12.77;11.47;;;10.70;99.90;;;;;;5008116;28;20631;-66
2020/12/15 14:10:04;;;;;;;12.80;11.60;;;10.70;99.90;;;;;;5000913;28;20627;-65
2020/12/15 14:12:49;;;;;;;12.30;11.10;;;10.70;99.90;;;;;;5013360;28;20631;-64
2020/12/15 14:15:34;;;;;;;13.00;10.93;;;10.60;99.90;;;;;;5027332;28;20592;-64
2020/12/15 14:18:18;;;;;;;11.37;10.17;;;10.60;99.90;;;;;;5002301;28;20642;-65
2020/12/15 14:21:04;;;;;;;12.00;10.80;;;10.70;99.90;;;;;;5005048;28;20639;-64
2020/12/15 14:23:49;;;;;;;12.80;10.80;;;10.70;99.90;;;;;;5001639;28;20631;-64
2020/12/15 14:26:33;;;;;;;12.60;11.30;;;10.70;99.90;;;;;;5034804;28;20619;-65